Time;durP1;ratioP1;P1;durP2;ratioP2;P2;SDS_P1;SDS_P2;PMS_P1;PMS_P2;Temp;Humidity;BMP_temperature;BMP_pressure;BME280_temperature;BME280_humidity;BME280_pressure;Samples;Min_cycle;Max_cycle;Signal;HPM_P1;HPM_P2
2021/12/06 06:17:57;;;;;;;25.45;12.00;;;;;;;-0.05;86.78;97727.25;4856558;29;20553;-51
2021/12/06 06:20:25;;;;;;;24.25;12.30;;;;;;;0.19;86.38;97731.56;4851610;29;20109;-48
2021/12/06 06:22:50;;;;;;;24.35;12.60;;;;;;;0.13;86.70;97743.84;4853211;29;20064;-47
2021/12/06 06:25:16;;;;;;;25.10;13.73;;;;;;;-0.08;87.24;97727.34;4839052;29;20033;-47
2021/12/06 06:27:44;;;;;;;32.22;16.70;;;;;;;-0.09;86.41;97723.09;4847976;29;20026;-51
2021/12/06 06:30:10;;;;;;;27.88;13.48;;;;;;;-0.04;86.96;97737.50;4856206;29;20029;-51
2021/12/06 06:32:35;;;;;;;24.00;12.40;;;;;;;0.14;86.68;97750.69;4857049;29;20028;-51
2021/12/06 06:35:01;;;;;;;25.17;13.05;;;;;;;0.03;86.47;97743.28;4857791;29;20028;-48
2021/12/06 06:37:26;;;;;;;26.25;14.18;;;;;;;0.28;86.00;97737.34;4855956;29;20109;-52
2021/12/06 06:39:52;;;;;;;25.08;12.23;;;;;;;0.32;86.02;97756.97;4857718;29;20022;-50
2021/12/06 06:42:17;;;;;;;25.23;11.82;;;;;;;0.36;85.31;97753.38;4856138;29;20034;-50
2021/12/06 06:44:42;;;;;;;25.77;13.00;;;;;;;0.59;84.40;97766.31;4856431;29;20155;-51
2021/12/06 06:47:08;;;;;;;22.08;11.95;;;;;;;0.78;83.63;97778.56;4857115;29;20030;-50
2021/12/06 06:49:33;;;;;;;24.70;12.52;;;;;;;0.70;83.60;97776.25;4857016;29;20030;-51
2021/12/06 06:51:59;;;;;;;26.27;13.52;;;;;;;0.50;84.67;97779.53;4856337;29;20033;-53
2021/12/06 06:54:25;;;;;;;29.08;14.45;;;;;;;0.38;85.35;97769.63;4855654;29;20465;-51
2021/12/06 06:56:50;;;;;;;28.83;14.57;;;;;;;0.33;86.21;97782.69;4868800;29;20030;-50
2021/12/06 06:59:15;;;;;;;27.73;14.27;;;;;;;0.37;86.13;97778.28;4852993;29;20293;-48
2021/12/06 07:01:41;;;;;;;30.77;14.52;;;;;;;0.25;86.64;97783.88;4853534;29;20030;-51
2021/12/06 07:04:07;;;;;;;29.15;14.48;;;;;;;0.15;87.26;97784.16;4867498;29;20086;-50
2021/12/06 07:06:33;;;;;;;31.10;13.88;;;;;;;0.49;86.28;97785.59;4851684;29;20040;-52
2021/12/06 07:08:58;;;;;;;29.63;14.27;;;;;;;0.66;85.12;97791.00;4852173;29;20042;-52
2021/12/06 07:11:24;;;;;;;26.52;13.13;;;;;;;0.53;85.61;97794.06;4853851;29;20072;-48
2021/12/06 07:13:49;;;;;;;28.40;13.60;;;;;;;0.51;86.07;97794.09;4863512;29;20094;-49
2021/12/06 07:16:15;;;;;;;24.38;12.00;;;;;;;0.70;84.88;97791.75;4853628;29;20123;-51
2021/12/06 07:18:41;;;;;;;25.83;11.80;;;;;;;0.74;84.70;97798.47;4851944;29;20171;-52
2021/12/06 07:21:06;;;;;;;27.40;12.30;;;;;;;0.80;84.52;97793.09;4856774;29;20089;-49
2021/12/06 07:23:38;;;;;;;57.05;22.73;;;;;;;0.73;84.92;97804.53;4846150;29;20018;-52
2021/12/06 07:26:03;;;;;;;34.38;14.65;;;;;;;0.67;85.17;97812.50;4849505;29;20060;-49
2021/12/06 07:28:29;;;;;;;35.45;15.68;;;;;;;0.58;85.70;97807.66;4841894;29;20042;-49
2021/12/06 07:30:54;;;;;;;53.97;21.55;;;;;;;0.52;86.24;97808.72;4858416;29;20042;-54
2021/12/06 07:33:19;;;;;;;39.08;17.15;;;;;;;0.67;86.22;97823.66;4848911;29;20030;-56
2021/12/06 07:35:45;;;;;;;31.30;11.82;;;;;;;0.90;84.57;97820.28;4849742;29;20060;-55
2021/12/06 07:38:10;;;;;;;29.17;13.00;;;;;;;0.75;85.68;97822.53;4848581;29;20038;-50
2021/12/06 07:40:36;;;;;;;28.85;13.20;;;;;;;0.70;85.39;97833.03;4852087;29;20033;-53
2021/12/06 07:43:01;;;;;;;31.58;13.50;;;;;;;0.53;86.33;97828.47;4851374;29;20410;-55
2021/12/06 07:45:26;;;;;;;32.80;13.77;;;;;;;0.69;85.92;97833.94;4851051;29;20049;-50
2021/12/06 07:47:52;;;;;;;35.28;14.52;;;;;;;0.57;86.12;97827.44;4852334;29;20037;-56
2021/12/06 07:50:18;;;;;;;34.15;13.73;;;;;;;0.91;84.99;97831.44;4854318;29;20162;-56
2021/12/06 07:52:44;;;;;;;30.65;14.77;;;;;;;0.79;85.65;97843.06;4852675;29;20030;-53
2021/12/06 07:55:11;;;;;;;35.22;13.85;;;;;;;0.91;85.36;97839.19;4851650;29;20399;-57
2021/12/06 07:57:36;;;;;;;35.40;14.02;;;;;;;0.66;86.22;97842.63;4850856;29;20094;-50
2021/12/06 08:00:08;;;;;;;36.10;14.43;;;;;;;0.92;85.74;97843.44;4851460;29;20455;-50
2021/12/06 08:02:33;;;;;;;;;;;;;;;0.94;85.59;97846.81;4849000;29;20041;-52
2021/12/06 08:05:29;;;;;;;28.45;12.50;;;;;;;1.05;84.75;97842.13;4850109;29;19950;-53
2021/12/06 08:07:44;;;;;;;35.47;13.77;;;;;;;0.99;85.28;97852.66;4843633;29;20108;-54
2021/12/06 08:10:09;;;;;;;34.30;14.10;;;;;;;0.93;85.59;97850.31;4847835;29;20034;-51
2021/12/06 08:12:35;;;;;;;33.80;13.18;;;;;;;1.02;84.99;97847.38;4841195;29;20395;-54
2021/12/06 08:15:00;;;;;;;32.55;13.05;;;;;;;1.08;85.20;97852.34;4844733;29;20034;-52
2021/12/06 08:17:25;;;;;;;38.40;14.32;;;;;;;1.09;85.00;97855.75;4868247;29;20042;-51
2021/12/06 08:19:51;;;;;;;34.10;12.63;;;;;;;1.15;85.01;97856.38;4840681;29;20025;-50
2021/12/06 08:22:16;;;;;;;35.53;13.43;;;;;;;1.55;83.39;97866.97;4845302;29;20038;-51
2021/12/06 08:24:42;;;;;;;32.53;13.63;;;;;;;1.45;83.65;97855.31;4843269;29;20021;-49
2021/12/06 08:27:07;;;;;;;36.55;13.73;;;;;;;1.37;84.57;97861.59;4842553;29;20056;-53
2021/12/06 08:29:32;;;;;;;34.33;14.80;;;;;;;1.48;83.66;97868.97;4842447;29;20040;-49
2021/12/06 08:31:58;;;;;;;37.70;14.52;;;;;;;1.37;84.34;97868.50;4845882;29;20026;-54
2021/12/06 08:34:23;;;;;;;32.03;13.80;;;;;;;1.27;84.25;97865.41;4847297;29;20271;-52
2021/12/06 08:36:48;;;;;;;35.35;13.90;;;;;;;1.24;84.77;97864.69;4846524;29;20048;-51
2021/12/06 08:39:14;;;;;;;36.83;13.77;;;;;;;1.39;84.11;97874.47;4842964;29;20037;-50
2021/12/06 08:41:39;;;;;;;34.35;13.50;;;;;;;1.28;84.39;97887.78;4843545;29;20022;-53
2021/12/06 08:44:05;;;;;;;32.47;13.48;;;;;;;1.41;84.29;97886.44;4847242;29;20097;-52
2021/12/06 08:46:35;;;;;;;38.10;14.95;;;;;;;1.27;84.94;97886.09;4846854;29;20406;-51
2021/12/06 08:49:05;;;;;;;36.13;13.93;;;;;;;1.50;84.26;97876.66;4846285;29;20040;-55
2021/12/06 08:51:33;;;;;;;34.95;14.45;;;;;;;1.56;84.09;97881.59;4846525;29;20026;-53
2021/12/06 08:54:00;;;;;;;32.92;13.15;;;;;;;1.56;84.48;97886.78;4846194;29;20049;-52
2021/12/06 08:56:27;;;;;;;36.00;14.55;;;;;;;1.64;83.61;97890.75;4847340;29;20041;-55
2021/12/06 08:58:52;;;;;;;33.53;12.85;;;;;;;1.83;82.55;97895.25;4839632;29;20036;-53
2021/12/06 09:01:18;;;;;;;33.20;14.55;;;;;;;1.82;82.43;97893.53;4849946;29;20025;-51
2021/12/06 09:03:43;;;;;;;41.15;16.10;;;;;;;1.28;84.17;97903.28;4846724;29;20091;-54
2021/12/06 09:06:09;;;;;;;31.10;13.80;;;;;;;1.35;83.62;97906.50;4849871;29;20038;-54
2021/12/06 09:08:35;;;;;;;28.27;12.02;;;;;;;1.53;83.21;97905.81;4847620;29;20030;-52
2021/12/06 09:11:00;;;;;;;25.45;12.05;;;;;;;1.64;82.33;97911.44;4846532;29;20030;-52
2021/12/06 09:13:28;;;;;;;34.00;13.50;;;;;;;1.68;82.40;97909.56;4838750;29;20038;-52
2021/12/06 09:15:55;;;;;;;31.60;13.18;;;;;;;1.51;82.83;97912.78;4847510;29;20045;-50
2021/12/06 09:18:21;;;;;;;29.10;12.20;;;;;;;1.55;81.87;97916.97;4852180;29;20030;-50
2021/12/06 09:20:48;;;;;;;32.65;13.07;;;;;;;1.48;82.23;97920.66;4841808;29;20030;-50
2021/12/06 09:23:13;;;;;;;31.52;12.23;;;;;;;1.52;82.74;97917.06;4853532;29;20065;-49
2021/12/06 09:25:39;;;;;;;30.92;12.20;;;;;;;1.44;83.32;97916.47;4846977;29;20094;-50
2021/12/06 09:28:05;;;;;;;28.02;11.95;;;;;;;1.65;82.39;97915.72;4829273;29;20041;-52
2021/12/06 09:30:31;;;;;;;29.48;11.68;;;;;;;1.50;82.64;97913.69;4849671;29;20029;-50
2021/12/06 09:32:57;;;;;;;31.05;11.73;;;;;;;1.63;81.95;97911.50;4845391;29;20030;-54
2021/12/06 09:35:26;;;;;;;32.25;12.52;;;;;;;1.67;81.99;97932.00;4861286;29;20037;-50
2021/12/06 09:37:52;;;;;;;36.53;13.73;;;;;;;1.51;81.72;97935.19;4847423;29;20025;-54
2021/12/06 09:40:18;;;;;;;35.35;14.10;;;;;;;1.37;82.67;97923.63;4846319;29;20036;-53
2021/12/06 09:42:44;;;;;;;35.10;13.30;;;;;;;1.44;83.12;97924.25;4849176;29;20030;-51
2021/12/06 09:45:21;;;;;;;34.35;13.40;;;;;;;1.47;83.92;97929.31;4844628;29;20033;-55
2021/12/06 09:47:51;;;;;;;29.67;12.55;;;;;;;1.65;82.79;97930.34;4852071;29;20038;-52
2021/12/06 09:50:18;;;;;;;31.92;12.30;;;;;;;1.71;81.84;97934.47;4849784;29;20034;-52
2021/12/06 09:52:44;;;;;;;32.13;12.85;;;;;;;1.49;81.80;97931.84;4848013;29;20033;-53
2021/12/06 09:55:09;;;;;;;31.60;13.30;;;;;;;1.41;82.83;97925.22;4849348;29;20034;-51
2021/12/06 09:57:35;;;;;;;29.88;12.32;;;;;;;1.56;81.85;97917.78;4843336;29;20037;-53
2021/12/06 10:00:00;;;;;;;26.92;11.15;;;;;;;1.66;81.07;97919.97;4848044;29;20026;-49
2021/12/06 10:02:26;;;;;;;27.25;11.68;;;;;;;1.81;80.96;97923.72;4848435;29;20034;-51
2021/12/06 10:04:54;;;;;;;26.25;11.43;;;;;;;1.78;80.83;97923.00;4847501;29;20081;-54
2021/12/06 10:07:20;;;;;;;28.63;11.80;;;;;;;1.45;82.81;97928.53;4847369;29;20026;-50
2021/12/06 10:09:46;;;;;;;29.45;11.40;;;;;;;1.46;82.50;97919.03;4848184;29;20109;-52
2021/12/06 10:12:12;;;;;;;29.40;13.13;;;;;;;1.66;81.74;97926.91;4847936;29;20426;-50
2021/12/06 10:14:37;;;;;;;25.73;11.48;;;;;;;1.59;81.96;97933.19;4861940;29;20044;-51
2021/12/06 10:17:04;;;;;;;27.25;11.48;;;;;;;1.81;80.29;97922.88;4845941;29;20090;-51
2021/12/06 10:19:29;;;;;;;29.95;11.98;;;;;;;1.61;80.57;97924.47;4846851;29;20588;-50
2021/12/06 10:21:55;;;;;;;25.20;10.05;;;;;;;1.71;81.18;97921.53;4847178;29;20038;-51
2021/12/06 10:24:23;;;;;;;27.88;12.25;;;;;;;1.52;81.68;97917.06;4844111;29;20026;-54
2021/12/06 10:26:48;;;;;;;26.33;11.95;;;;;;;1.87;80.65;97918.31;4844600;29;20037;-53
2021/12/06 10:29:20;;;;;;;28.00;12.65;;;;;;;1.71;81.12;97916.38;4848432;29;20034;-49
2021/12/06 10:31:45;;;;;;;29.92;11.63;;;;;;;1.46;81.97;97919.88;4845194;29;20538;-55
2021/12/06 10:34:18;;;;;;;28.45;11.77;;;;;;;1.77;81.58;97916.16;4844516;29;20117;-51
2021/12/06 10:36:44;;;;;;;29.05;12.80;;;;;;;1.97;79.84;97908.47;4844046;29;20490;-52
2021/12/06 10:39:09;;;;;;;26.42;10.85;;;;;;;2.07;79.17;97903.78;4850385;29;20059;-51
2021/12/06 10:41:35;;;;;;;27.00;11.23;;;;;;;2.25;77.97;97904.81;4852718;29;20026;-50
2021/12/06 10:44:04;;;;;;;26.42;10.95;;;;;;;2.24;79.00;97910.88;4849612;29;20426;-52
2021/12/06 10:46:29;;;;;;;24.80;11.07;;;;;;;1.80;80.97;97910.88;4826617;29;20172;-50
2021/12/06 10:48:57;;;;;;;23.48;11.88;;;;;;;1.96;79.71;97906.81;4846474;29;20030;-52
2021/12/06 10:51:26;;;;;;;25.60;11.23;;;;;;;1.57;81.17;97906.53;4848465;29;20034;-53
2021/12/06 10:54:08;;;;;;;27.15;10.60;;;;;;;1.93;80.78;97896.56;4846109;29;20030;-54
2021/12/06 10:56:43;;;;;;;24.00;10.65;;;;;;;2.27;78.60;97913.34;4840623;29;20388;-49
2021/12/06 10:59:16;;;;;;;24.33;11.68;;;;;;;2.20;77.78;97904.97;4847952;29;20037;-50
2021/12/06 11:01:41;;;;;;;24.35;10.98;;;;;;;2.23;78.12;97897.09;4841601;29;20457;-51
2021/12/06 11:04:09;;;;;;;27.08;11.52;;;;;;;2.15;78.54;97899.16;4848675;29;20030;-51
2021/12/06 11:06:44;;;;;;;29.30;12.35;;;;;;;2.02;79.76;97891.00;4847533;29;20069;-53
2021/12/06 11:09:11;;;;;;;25.65;11.23;;;;;;;1.80;79.97;97895.34;4852562;29;20129;-52
2021/12/06 11:11:38;;;;;;;26.25;12.45;;;;;;;1.78;80.65;97892.81;4840843;29;20059;-52
2021/12/06 11:14:06;;;;;;;46.17;20.13;;;;;;;1.72;80.56;97889.59;4851118;29;20034;-54
2021/12/06 11:16:33;;;;;;;39.13;19.88;;;;;;;1.78;81.00;97899.72;4862027;29;20045;-54
2021/12/06 11:19:03;;;;;;;29.02;12.57;;;;;;;2.21;80.14;97895.47;4848476;29;20060;-50
2021/12/06 11:21:51;;;;;;;20.92;9.95;;;;;;;2.02;78.53;97903.09;4847871;29;20038;-53
2021/12/06 11:24:19;;;;;;;23.77;9.77;;;;;;;2.60;77.40;97904.19;4848351;29;20045;-54
2021/12/06 11:26:53;;;;;;;21.90;9.40;;;;;;;2.77;76.30;97897.50;4849231;29;20082;-51
2021/12/06 11:29:40;;;;;;;21.95;9.73;;;;;;;2.55;77.11;97900.97;4854025;29;20041;-50
2021/12/06 11:32:12;;;;;;;24.90;10.10;;;;;;;2.66;76.88;97892.75;4859800;29;20034;-50
2021/12/06 11:34:46;;;;;;;23.95;10.85;;;;;;;2.77;76.53;97892.31;4860815;29;20066;-50
2021/12/06 11:37:21;;;;;;;20.98;9.63;;;;;;;2.70;76.18;97893.47;4833062;29;20049;-50
2021/12/06 11:39:49;;;;;;;18.08;8.38;;;;;;;2.92;75.44;97893.41;4848895;29;20030;-53
2021/12/06 11:42:15;;;;;;;20.52;9.90;;;;;;;3.07;74.22;97895.34;4839612;29;20076;-51
2021/12/06 11:44:42;;;;;;;21.63;9.05;;;;;;;2.93;74.79;97888.16;4848413;29;20030;-52
2021/12/06 11:47:13;;;;;;;19.95;9.35;;;;;;;2.89;75.41;97899.56;4850036;29;20033;-48
2021/12/06 11:49:46;;;;;;;20.52;9.68;;;;;;;2.79;75.73;97893.09;4865775;29;20029;-55
2021/12/06 11:52:19;;;;;;;21.15;9.25;;;;;;;2.68;76.59;97882.31;4843338;29;20117;-54
2021/12/06 11:55:09;;;;;;;23.40;10.32;;;;;;;2.83;76.64;97885.13;4850827;29;20034;-55
2021/12/06 11:57:39;;;;;;;23.15;8.88;;;;;;;3.18;74.39;97889.69;4849545;29;20046;-52
2021/12/06 12:00:23;;;;;;;21.77;8.82;;;;;;;3.40;73.20;97874.84;4851712;29;20053;-53
2021/12/06 12:02:51;;;;;;;23.10;9.50;;;;;;;2.61;75.65;97884.31;4836859;29;20029;-54
2021/12/06 12:05:20;;;;;;;19.92;8.77;;;;;;;2.67;75.48;97878.91;4853628;29;20509;-53
2021/12/06 12:08:03;;;;;;;18.73;8.32;;;;;;;2.97;74.26;97879.34;4846046;29;20113;-51
2021/12/06 12:10:35;;;;;;;21.60;8.55;;;;;;;2.88;73.74;97876.31;4860975;29;20038;-53
2021/12/06 12:13:01;;;;;;;22.05;9.10;;;;;;;2.50;75.88;97878.75;4848816;29;20071;-51
2021/12/06 12:15:26;;;;;;;20.77;9.23;;;;;;;2.39;76.09;97881.78;4849032;29;20026;-50
2021/12/06 12:17:52;;;;;;;18.98;8.45;;;;;;;2.78;75.04;97876.69;4849509;29;20038;-52
2021/12/06 12:20:17;;;;;;;18.88;8.57;;;;;;;2.58;75.23;97885.31;4859673;29;20074;-53
2021/12/06 12:22:49;;;;;;;20.73;9.10;;;;;;;2.67;75.03;97889.25;4849087;29;20085;-49
2021/12/06 12:25:22;;;;;;;22.60;9.50;;;;;;;2.88;75.07;97884.09;4848944;29;20034;-52
2021/12/06 12:28:13;;;;;;;19.73;9.65;;;;;;;2.98;74.70;97883.63;4847407;29;20038;-49
2021/12/06 12:30:38;;;;;;;18.17;9.50;;;;;;;2.83;74.85;97879.94;4848747;29;20538;-48
2021/12/06 12:33:05;;;;;;;27.50;12.38;;;;;;;3.05;73.93;97886.78;4848170;29;20113;-51
2021/12/06 12:35:30;;;;;;;142.73;58.75;;;;;;;2.87;74.55;97887.59;4847817;29;20062;-54
2021/12/06 12:37:56;;;;;;;22.20;10.85;;;;;;;2.92;74.78;97888.22;4845883;29;20038;-56
2021/12/06 12:40:23;;;;;;;21.27;9.70;;;;;;;3.45;74.26;97888.47;4845818;29;20040;-52
2021/12/06 12:42:55;;;;;;;19.70;9.73;;;;;;;3.62;72.41;97881.69;4845197;29;20540;-53
2021/12/06 12:45:20;;;;;;;22.80;9.52;;;;;;;3.03;73.77;97886.88;4845105;29;20034;-54
2021/12/06 12:47:46;;;;;;;20.38;9.63;;;;;;;2.75;75.48;97891.53;4845289;29;20029;-55
2021/12/06 12:50:14;;;;;;;17.55;8.43;;;;;;;3.21;74.20;97887.81;4845581;29;20041;-53
2021/12/06 12:52:48;;;;;;;18.50;8.48;;;;;;;3.22;73.92;97888.66;4845732;29;20164;-52
2021/12/06 12:55:25;;;;;;;20.00;8.70;;;;;;;3.49;73.70;97884.81;4845088;29;20022;-54
2021/12/06 12:58:13;;;;;;;20.33;9.98;;;;;;;3.12;73.74;97889.97;4845191;29;20102;-54
2021/12/06 13:00:51;;;;;;;19.80;9.30;;;;;;;2.69;74.99;97892.63;4846970;29;20022;-50
2021/12/06 13:03:51;;;;;;;20.17;9.63;;;;;;;2.68;76.18;97885.75;4848191;29;20038;-54
2021/12/06 13:06:16;;;;;;;19.38;8.77;;;;;;;3.00;73.63;97886.16;4848930;29;20089;-54
2021/12/06 13:08:42;;;;;;;17.67;8.27;;;;;;;2.97;74.30;97881.09;4848851;29;20065;-56
2021/12/06 13:11:07;;;;;;;17.95;8.25;;;;;;;3.12;74.05;97884.78;4850629;29;20033;-56
2021/12/06 13:13:44;;;;;;;20.08;9.10;;;;;;;3.13;74.29;97887.28;4831003;29;20125;-53
2021/12/06 13:16:34;;;;;;;18.25;7.72;;;;;;;3.42;72.71;97878.22;4849232;29;20042;-55
2021/12/06 13:19:09;;;;;;;19.40;7.88;;;;;;;3.71;72.32;97869.13;4845726;29;20030;-52
2021/12/06 13:21:52;;;;;;;19.83;8.57;;;;;;;3.44;72.61;97879.03;4846966;29;20042;-51
2021/12/06 13:24:18;;;;;;;17.15;8.18;;;;;;;3.83;71.93;97870.31;4830014;29;20030;-52
2021/12/06 13:26:46;;;;;;;18.02;7.85;;;;;;;3.65;72.00;97871.16;4833782;29;20501;-52
2021/12/06 13:29:16;;;;;;;16.13;6.97;;;;;;;3.65;72.19;97868.56;4846662;29;20048;-54
2021/12/06 13:31:41;;;;;;;19.17;8.02;;;;;;;3.39;73.72;97872.34;4846042;29;20085;-51
2021/12/06 13:34:15;;;;;;;18.27;8.63;;;;;;;3.49;72.36;97858.91;4846213;29;20025;-52
2021/12/06 13:36:50;;;;;;;18.10;7.50;;;;;;;3.64;73.31;97861.69;4846424;29;20033;-51
2021/12/06 13:39:36;;;;;;;17.85;8.63;;;;;;;3.65;72.93;97858.19;4846041;29;20030;-52
2021/12/06 13:42:12;;;;;;;19.10;8.23;;;;;;;3.48;73.90;97861.56;4844874;29;20079;-52
2021/12/06 13:44:37;;;;;;;19.38;8.82;;;;;;;3.24;75.05;97859.16;4841894;29;20030;-54
2021/12/06 13:47:23;;;;;;;19.30;8.60;;;;;;;3.47;73.97;97858.09;4864264;29;20035;-51
2021/12/06 13:50:08;;;;;;;20.05;9.10;;;;;;;3.61;73.58;97859.25;4847878;29;20032;-50
2021/12/06 13:52:48;;;;;;;20.58;8.63;;;;;;;3.32;73.61;97857.06;4848149;29;20153;-50
2021/12/06 13:55:18;;;;;;;20.20;9.05;;;;;;;3.22;73.89;97844.59;4865496;29;20017;-54
2021/12/06 13:57:45;;;;;;;18.05;8.35;;;;;;;3.28;73.92;97857.28;4868246;29;20452;-51
2021/12/06 14:00:11;;;;;;;20.33;9.27;;;;;;;3.33;73.93;97858.72;4846782;29;20042;-53
2021/12/06 14:02:37;;;;;;;16.98;8.77;;;;;;;3.51;72.89;97864.88;4849041;29;20506;-50
2021/12/06 14:05:03;;;;;;;16.02;8.88;;;;;;;3.63;72.88;97860.03;4844257;29;20030;-51
2021/12/06 14:07:28;;;;;;;17.70;8.07;;;;;;;3.51;73.56;97862.28;4838704;29;20037;-53
2021/12/06 14:09:56;;;;;;;19.23;8.70;;;;;;;3.40;73.33;97869.66;4848561;29;20439;-55
2021/12/06 14:12:24;;;;;;;18.73;9.48;;;;;;;3.25;73.71;97865.19;4847854;29;20022;-52
2021/12/06 14:14:51;;;;;;;18.20;8.80;;;;;;;3.19;74.31;97868.88;4864889;29;20405;-57
2021/12/06 14:17:17;;;;;;;19.13;8.63;;;;;;;3.11;73.98;97868.38;4853396;29;20046;-53
2021/12/06 14:19:43;;;;;;;18.42;8.70;;;;;;;3.08;74.95;97879.72;4851320;29;20026;-51
2021/12/06 14:22:09;;;;;;;18.92;8.05;;;;;;;3.15;74.80;97874.28;4850334;29;20044;-51
2021/12/06 14:24:36;;;;;;;19.48;8.98;;;;;;;3.08;74.58;97884.91;4834539;29;20094;-52
2021/12/06 14:27:02;;;;;;;19.13;8.57;;;;;;;3.03;74.98;97888.63;4833661;29;20651;-53
2021/12/06 14:29:28;;;;;;;19.80;8.75;;;;;;;2.89;74.41;97889.22;4833176;29;20600;-53
2021/12/06 14:31:55;;;;;;;22.75;9.82;;;;;;;2.76;74.80;97893.22;4833718;29;20041;-50
2021/12/06 14:34:21;;;;;;;20.08;10.38;;;;;;;2.58;75.87;97890.50;4839052;29;20060;-54
2021/12/06 14:36:47;;;;;;;18.83;9.52;;;;;;;2.50;75.75;97896.88;4851321;29;20517;-55
2021/12/06 14:39:18;;;;;;;18.98;9.57;;;;;;;2.63;76.41;97892.03;4850711;29;20022;-55
2021/12/06 14:41:54;;;;;;;18.45;8.63;;;;;;;2.59;76.95;97897.34;4852603;29;20450;-55
2021/12/06 14:44:50;;;;;;;20.88;8.50;;;;;;;2.64;76.20;97894.56;4851749;29;20513;-55
2021/12/06 14:47:29;;;;;;;17.15;9.07;;;;;;;2.68;76.68;97901.28;4836566;29;20046;-54
2021/12/06 14:49:55;;;;;;;17.27;8.18;;;;;;;2.65;76.51;97892.81;4833862;29;20043;-53
2021/12/06 14:52:28;;;;;;;20.60;10.10;;;;;;;2.73;76.32;97888.16;4832516;29;20467;-53
2021/12/06 14:55:10;;;;;;;22.45;9.60;;;;;;;2.65;76.67;97885.03;4828625;29;20047;-53
2021/12/06 14:57:36;;;;;;;20.05;8.88;;;;;;;2.61;76.60;97892.09;4839898;29;20491;-51
2021/12/06 15:00:07;;;;;;;22.55;9.88;;;;;;;2.51;76.85;97890.78;4846868;29;20090;-51
2021/12/06 15:02:38;;;;;;;21.80;9.73;;;;;;;2.48;77.31;97894.38;4860137;29;20063;-51
2021/12/06 15:05:04;;;;;;;32.25;11.98;;;;;;;2.43;77.09;97892.88;4847608;29;20399;-55
2021/12/06 15:07:29;;;;;;;71.40;22.92;;;;;;;2.39;77.45;97889.56;4850684;29;20119;-55
2021/12/06 15:09:54;;;;;;;28.55;12.13;;;;;;;2.12;78.10;97899.25;4849337;29;20036;-55
2021/12/06 15:12:21;;;;;;;23.80;9.95;;;;;;;2.17;78.32;97883.53;4846649;29;20026;-54
2021/12/06 15:14:47;;;;;;;20.50;10.27;;;;;;;2.01;78.91;97894.50;4848420;29;20387;-56
2021/12/06 15:17:13;;;;;;;22.92;10.15;;;;;;;2.03;79.16;97892.72;4850344;29;20038;-53
2021/12/06 15:19:40;;;;;;;25.33;11.40;;;;;;;1.98;79.67;97892.03;4851132;29;20025;-54
2021/12/06 15:22:06;;;;;;;21.38;11.20;;;;;;;2.12;79.25;97900.09;4851963;29;20033;-53
2021/12/06 15:24:32;;;;;;;22.33;10.93;;;;;;;2.18;79.04;97887.84;4851335;29;20105;-53
2021/12/06 15:26:59;;;;;;;28.70;12.20;;;;;;;1.99;79.16;97891.13;4850904;29;20058;-50
2021/12/06 15:29:30;;;;;;;24.80;11.23;;;;;;;2.23;78.24;97888.47;4853145;29;20045;-56
2021/12/06 15:32:00;;;;;;;24.55;11.27;;;;;;;2.07;78.34;97889.09;4861816;29;20025;-54
2021/12/06 15:34:30;;;;;;;20.40;11.05;;;;;;;2.10;78.57;97901.09;4842923;29;20089;-53
2021/12/06 15:36:56;;;;;;;26.30;10.90;;;;;;;1.94;78.59;97900.81;4844127;29;20038;-55
2021/12/06 15:39:21;;;;;;;29.33;11.77;;;;;;;1.66;79.94;97899.28;4848031;29;20033;-50
2021/12/06 15:41:56;;;;;;;27.20;12.27;;;;;;;1.89;79.50;97894.97;4850550;29;20037;-50
2021/12/06 15:44:33;;;;;;;23.35;11.55;;;;;;;1.98;78.72;97889.47;4847585;29;20574;-54
2021/12/06 15:47:13;;;;;;;27.17;11.82;;;;;;;1.82;78.88;97894.38;4846999;29;20034;-55
2021/12/06 15:49:40;;;;;;;28.15;13.15;;;;;;;1.32;81.03;97896.28;4848708;29;20508;-56
2021/12/06 15:52:09;;;;;;;29.23;12.95;;;;;;;1.29;81.15;97894.63;4847044;29;20045;-54
2021/12/06 15:54:38;;;;;;;27.17;12.32;;;;;;;1.34;81.01;97892.75;4845275;29;20033;-54
2021/12/06 15:57:07;;;;;;;24.65;11.55;;;;;;;1.23;81.25;97888.84;4847327;29;20061;-53
2021/12/06 15:59:34;;;;;;;25.35;12.07;;;;;;;1.12;81.70;97897.81;4841895;29;20036;-51
2021/12/06 16:02:16;;;;;;;29.15;11.73;;;;;;;1.22;81.84;97898.34;4844297;29;20030;-54
2021/12/06 16:04:43;;;;;;;26.55;11.57;;;;;;;1.39;80.98;97890.81;4844615;29;20033;-50
2021/12/06 16:07:08;;;;;;;24.90;12.02;;;;;;;1.25;80.92;97899.97;4845393;29;20058;-52
2021/12/06 16:09:34;;;;;;;28.15;12.43;;;;;;;1.34;80.83;97890.16;4862133;29;20100;-54
2021/12/06 16:12:04;;;;;;;24.77;10.73;;;;;;;1.29;81.97;97893.78;4847398;29;20436;-56
2021/12/06 16:14:31;;;;;;;29.65;11.85;;;;;;;1.22;81.79;97898.34;4844921;29;20026;-52
2021/12/06 16:16:56;;;;;;;30.77;11.65;;;;;;;1.37;81.33;97895.19;4842924;29;20101;-52
2021/12/06 16:19:22;;;;;;;27.38;11.88;;;;;;;1.12;82.48;97902.97;4825736;29;20029;-53
2021/12/06 16:21:48;;;;;;;30.13;13.13;;;;;;;1.19;82.03;97899.28;4841854;29;20086;-52
2021/12/06 16:24:14;;;;;;;25.30;12.18;;;;;;;1.21;82.09;97907.00;4843640;29;20368;-53
2021/12/06 16:26:41;;;;;;;23.75;11.27;;;;;;;1.28;82.00;97903.28;4844559;29;20038;-52
2021/12/06 16:29:12;;;;;;;30.73;12.43;;;;;;;1.19;82.41;97914.78;4843743;29;20034;-54
2021/12/06 16:31:39;;;;;;;116.10;30.45;;;;;;;1.03;82.97;97908.47;4826582;29;20030;-51
2021/12/06 16:34:24;;;;;;;239.25;50.55;;;;;;;1.39;81.96;97910.66;4841988;29;20029;-56
2021/12/06 16:36:53;;;;;;;275.08;56.70;;;;;;;1.55;81.21;97914.38;4844974;29;20033;-51
2021/12/06 16:39:44;;;;;;;143.10;35.08;;;;;;;1.30;82.07;97908.38;4842585;29;20426;-51
2021/12/06 16:42:15;;;;;;;579.42;129.90;;;;;;;1.32;82.30;97906.59;4830013;29;20034;-55
2021/12/06 16:44:48;;;;;;;184.88;42.83;;;;;;;1.27;82.53;97908.50;4827095;29;20105;-52
2021/12/06 16:47:36;;;;;;;325.40;64.07;;;;;;;1.25;82.61;97912.91;4827632;29;20054;-53
2021/12/06 16:50:11;;;;;;;178.57;46.15;;;;;;;1.01;83.02;97914.59;4830490;29;20026;-56
2021/12/06 16:52:44;;;;;;;51.03;18.50;;;;;;;1.24;82.26;97911.19;4846854;29;20029;-54
2021/12/06 16:55:12;;;;;;;86.57;28.38;;;;;;;1.10;82.04;97909.97;4845462;29;20367;-54
2021/12/06 16:57:45;;;;;;;138.52;39.17;;;;;;;1.16;82.35;97907.13;4847131;29;20038;-51
2021/12/06 17:00:26;;;;;;;112.57;34.47;;;;;;;1.10;82.33;97904.81;4847419;29;20058;-52
2021/12/06 17:03:18;;;;;;;78.85;25.58;;;;;;;1.08;82.20;97895.41;4846556;29;20029;-51
2021/12/06 17:06:11;;;;;;;70.82;24.02;;;;;;;0.93;82.18;97892.47;4846186;29;20131;-53
2021/12/06 17:08:39;;;;;;;32.95;14.63;;;;;;;1.05;81.81;97890.34;4845717;29;20490;-51
2021/12/06 17:11:08;;;;;;;24.95;11.85;;;;;;;1.00;82.25;97887.94;4862439;29;20116;-52
2021/12/06 17:13:35;;;;;;;49.17;20.42;;;;;;;0.82;82.77;97888.56;4860361;29;20095;-53
2021/12/06 17:16:03;;;;;;;47.45;19.48;;;;;;;0.84;82.70;97881.63;4856851;29;20026;-55
2021/12/06 17:18:33;;;;;;;93.47;57.97;;;;;;;1.02;81.53;97886.13;4849903;29;20094;-56
2021/12/06 17:21:10;;;;;;;79.97;53.33;;;;;;;1.21;79.52;97886.34;4865973;29;20025;-50
2021/12/06 17:23:36;;;;;;;42.47;25.15;;;;;;;1.05;80.25;97882.59;4848496;29;20041;-53
2021/12/06 17:26:05;;;;;;;47.13;30.30;;;;;;;1.19;78.79;97880.38;4844197;29;20034;-52
2021/12/06 17:28:33;;;;;;;39.75;25.67;;;;;;;1.29;77.95;97879.13;4844381;29;20050;-53
2021/12/06 17:31:04;;;;;;;29.77;15.25;;;;;;;1.19;77.60;97873.44;4848419;29;20029;-47
2021/12/06 17:33:40;;;;;;;35.03;21.48;;;;;;;1.02;79.31;97869.78;4844285;29;20063;-49
2021/12/06 17:36:06;;;;;;;36.85;18.25;;;;;;;1.00;79.13;97862.13;4845806;29;20042;-49
2021/12/06 17:38:33;;;;;;;32.17;14.68;;;;;;;0.77;80.42;97862.06;4847853;29;20109;-52
2021/12/06 17:40:59;;;;;;;27.50;12.35;;;;;;;0.81;80.02;97861.06;4847096;29;20473;-53
2021/12/06 17:43:25;;;;;;;31.58;13.20;;;;;;;0.57;80.69;97855.84;4845872;29;20479;-49
2021/12/06 17:45:50;;;;;;;29.83;14.02;;;;;;;0.67;80.86;97852.06;4846566;29;20576;-52
2021/12/06 17:48:16;;;;;;;30.58;14.20;;;;;;;0.30;81.83;97854.19;4846920;29;20119;-49
2021/12/06 17:50:41;;;;;;;32.42;14.77;;;;;;;0.31;82.19;97851.56;4847790;29;20041;-52
2021/12/06 17:53:08;;;;;;;31.77;14.93;;;;;;;0.14;82.89;97849.53;4859751;29;20414;-51